sensor_id;sensor_type;location;lat;lon;timestamp;temperature;humidity
13322;DHT22;6730;46.248;6.930;2024-01-15T00:01:56;2.30;99.90
13322;DHT22;6730;46.248;6.930;2024-01-15T00:04:21;1.80;99.90
13322;DHT22;6730;46.248;6.930;2024-01-15T00:06:47;1.90;99.90
13322;DHT22;6730;46.248;6.930;2024-01-15T00:09:13;2.30;99.90
13322;DHT22;6730;46.248;6.930;2024-01-15T00:11:38;2.70;99.90
13322;DHT22;6730;46.248;6.930;2024-01-15T00:14:04;2.80;99.90
13322;DHT22;6730;46.248;6.930;2024-01-15T00:16:30;2.80;99.90
13322;DHT22;6730;46.248;6.930;2024-01-15T00:18:55;2.80;99.90
13322;DHT22;6730;46.248;6.930;2024-01-15T00:21:21;3.00;99.90
13322;DHT22;6730;46.248;6.930;2024-01-15T00:23:47;3.20;99.90
13322;DHT22;6730;46.248;6.930;2024-01-15T00:26:12;3.30;99.90
13322;DHT22;6730;46.248;6.930;2024-01-15T00:28:38;3.40;99.90
13322;DHT22;6730;46.248;6.930;2024-01-15T00:31:05;3.40;99.90
13322;DHT22;6730;46.248;6.930;2024-01-15T00:33:31;3.40;99.90
13322;DHT22;6730;46.248;6.930;2024-01-15T00:35:56;3.60;99.90
13322;DHT22;6730;46.248;6.930;2024-01-15T00:38:22;3.60;99.90
13322;DHT22;6730;46.248;6.930;2024-01-15T00:40:48;3.50;99.90
13322;DHT22;6730;46.248;6.930;2024-01-15T00:43:14;3.50;99.90
13322;DHT22;6730;46.248;6.930;2024-01-15T00:45:40;3.70;99.90
13322;DHT22;6730;46.248;6.930;2024-01-15T00:48:06;3.80;99.90
13322;DHT22;6730;46.248;6.930;2024-01-15T00:50:32;3.50;99.90
13322;DHT22;6730;46.248;6.930;2024-01-15T00:52:57;3.30;99.90
13322;DHT22;6730;46.248;6.930;2024-01-15T00:55:23;3.20;99.90
13322;DHT22;6730;46.248;6.930;2024-01-15T00:57:49;3.20;99.90
13322;DHT22;6730;46.248;6.930;2024-01-15T01:00:14;3.20;99.90
13322;DHT22;6730;46.248;6.930;2024-01-15T01:02:40;3.40;99.90
13322;DHT22;6730;46.248;6.930;2024-01-15T01:05:06;3.30;99.90
13322;DHT22;6730;46.248;6.930;2024-01-15T01:07:31;2.80;99.90
13322;DHT22;6730;46.248;6.930;2024-01-15T01:09:57;3.00;99.90
13322;DHT22;6730;46.248;6.930;2024-01-15T01:12:23;3.10;99.90
13322;DHT22;6730;46.248;6.930;2024-01-15T01:14:48;3.00;99.90
13322;DHT22;6730;46.248;6.930;2024-01-15T01:17:14;3.00;99.90
13322;DHT22;6730;46.248;6.930;2024-01-15T01:19:40;2.70;99.90
13322;DHT22;6730;46.248;6.930;2024-01-15T01:22:05;2.00;99.90
13322;DHT22;6730;46.248;6.930;2024-01-15T01:24:31;2.00;99.90
13322;DHT22;6730;46.248;6.930;2024-01-15T01:26:57;2.40;99.90
13322;DHT22;6730;46.248;6.930;2024-01-15T01:29:22;2.80;99.90
13322;DHT22;6730;46.248;6.930;2024-01-15T01:31:48;3.00;99.90
13322;DHT22;6730;46.248;6.930;2024-01-15T01:34:15;3.10;99.90
13322;DHT22;6730;46.248;6.930;2024-01-15T01:36:41;2.80;99.90
13322;DHT22;6730;46.248;6.930;2024-01-15T01:39:07;2.50;99.90
13322;DHT22;6730;46.248;6.930;2024-01-15T01:41:32;2.00;99.90
13322;DHT22;6730;46.248;6.930;2024-01-15T01:43:58;1.50;99.90
13322;DHT22;6730;46.248;6.930;2024-01-15T01:46:24;1.40;99.90
13322;DHT22;6730;46.248;6.930;2024-01-15T01:48:52;1.50;99.90
13322;DHT22;6730;46.248;6.930;2024-01-15T01:51:18;1.90;99.90
13322;DHT22;6730;46.248;6.930;2024-01-15T01:53:44;2.30;99.90
13322;DHT22;6730;46.248;6.930;2024-01-15T01:56:11;2.50;99.90
13322;DHT22;6730;46.248;6.930;2024-01-15T01:58:37;2.80;99.90
13322;DHT22;6730;46.248;6.930;2024-01-15T02:01:03;3.00;99.90
13322;DHT22;6730;46.248;6.930;2024-01-15T02:03:30;2.80;99.90
13322;DHT22;6730;46.248;6.930;2024-01-15T02:05:56;2.40;99.90
13322;DHT22;6730;46.248;6.930;2024-01-15T02:08:22;2.30;99.90
13322;DHT22;6730;46.248;6.930;2024-01-15T02:10:48;2.30;99.90
13322;DHT22;6730;46.248;6.930;2024-01-15T02:13:14;2.30;99.90
13322;DHT22;6730;46.248;6.930;2024-01-15T02:15:40;2.10;99.90
13322;DHT22;6730;46.248;6.930;2024-01-15T02:18:06;1.80;99.90
13322;DHT22;6730;46.248;6.930;2024-01-15T02:20:33;1.60;99.90
13322;DHT22;6730;46.248;6.930;2024-01-15T02:25:35;2.30;99.90
13322;DHT22;6730;46.248;6.930;2024-01-15T02:28:02;2.80;99.90
13322;DHT22;6730;46.248;6.930;2024-01-15T02:30:28;3.20;99.90
13322;DHT22;6730;46.248;6.930;2024-01-15T02:32:55;3.40;99.90
13322;DHT22;6730;46.248;6.930;2024-01-15T02:35:20;3.50;99.90
13322;DHT22;6730;46.248;6.930;2024-01-15T02:37:46;3.30;99.90
13322;DHT22;6730;46.248;6.930;2024-01-15T02:40:12;3.20;99.90
13322;DHT22;6730;46.248;6.930;2024-01-15T02:42:37;2.90;99.90
13322;DHT22;6730;46.248;6.930;2024-01-15T02:45:04;2.90;99.90
13322;DHT22;6730;46.248;6.930;2024-01-15T02:47:32;3.00;99.90
13322;DHT22;6730;46.248;6.930;2024-01-15T02:49:58;3.20;99.90
13322;DHT22;6730;46.248;6.930;2024-01-15T02:52:23;2.80;99.90
13322;DHT22;6730;46.248;6.930;2024-01-15T02:54:49;2.80;99.90
13322;DHT22;6730;46.248;6.930;2024-01-15T02:57:14;2.80;99.90
13322;DHT22;6730;46.248;6.930;2024-01-15T02:59:40;2.60;99.90
13322;DHT22;6730;46.248;6.930;2024-01-15T03:02:06;2.40;99.90
13322;DHT22;6730;46.248;6.930;2024-01-15T03:04:31;2.20;99.90
13322;DHT22;6730;46.248;6.930;2024-01-15T03:06:57;1.80;99.90
13322;DHT22;6730;46.248;6.930;2024-01-15T03:09:22;1.60;99.90
13322;DHT22;6730;46.248;6.930;2024-01-15T03:11:48;1.50;99.90
13322;DHT22;6730;46.248;6.930;2024-01-15T03:14:14;1.60;99.90
13322;DHT22;6730;46.248;6.930;2024-01-15T03:16:40;1.70;99.90
13322;DHT22;6730;46.248;6.930;2024-01-15T03:19:05;2.10;99.90
13322;DHT22;6730;46.248;6.930;2024-01-15T03:21:31;2.30;99.90
13322;DHT22;6730;46.248;6.930;2024-01-15T03:23:57;2.60;99.90
13322;DHT22;6730;46.248;6.930;2024-01-15T03:26:22;2.70;99.90
13322;DHT22;6730;46.248;6.930;2024-01-15T03:28:48;2.40;99.90
13322;DHT22;6730;46.248;6.930;2024-01-15T03:31:14;2.60;99.90
13322;DHT22;6730;46.248;6.930;2024-01-15T03:33:39;2.90;99.90
13322;DHT22;6730;46.248;6.930;2024-01-15T03:36:05;3.00;99.90
13322;DHT22;6730;46.248;6.930;2024-01-15T03:38:31;3.20;99.90
13322;DHT22;6730;46.248;6.930;2024-01-15T03:40:56;3.00;99.90
13322;DHT22;6730;46.248;6.930;2024-01-15T03:43:22;3.20;99.90
13322;DHT22;6730;46.248;6.930;2024-01-15T03:45:48;3.20;99.90
13322;DHT22;6730;46.248;6.930;2024-01-15T03:48:13;2.90;99.90
13322;DHT22;6730;46.248;6.930;2024-01-15T03:50:39;2.80;99.90
13322;DHT22;6730;46.248;6.930;2024-01-15T03:53:05;2.80;99.90
13322;DHT22;6730;46.248;6.930;2024-01-15T03:55:30;2.70;99.90
13322;DHT22;6730;46.248;6.930;2024-01-15T03:57:56;2.20;99.90
13322;DHT22;6730;46.248;6.930;2024-01-15T04:00:22;2.00;99.90
13322;DHT22;6730;46.248;6.930;2024-01-15T04:02:48;2.50;99.90
13322;DHT22;6730;46.248;6.930;2024-01-15T04:05:13;3.00;99.90
13322;DHT22;6730;46.248;6.930;2024-01-15T04:07:39;3.40;99.90
13322;DHT22;6730;46.248;6.930;2024-01-15T04:10:05;3.60;99.90
13322;DHT22;6730;46.248;6.930;2024-01-15T04:12:31;3.40;99.90
13322;DHT22;6730;46.248;6.930;2024-01-15T04:14:57;3.10;99.90
13322;DHT22;6730;46.248;6.930;2024-01-15T04:17:22;3.20;99.90
13322;DHT22;6730;46.248;6.930;2024-01-15T04:19:48;3.40;99.90
13322;DHT22;6730;46.248;6.930;2024-01-15T04:22:14;3.40;99.90
13322;DHT22;6730;46.248;6.930;2024-01-15T04:24:39;3.50;99.90
13322;DHT22;6730;46.248;6.930;2024-01-15T04:27:06;3.40;99.90
13322;DHT22;6730;46.248;6.930;2024-01-15T04:29:32;3.20;99.90
13322;DHT22;6730;46.248;6.930;2024-01-15T04:31:58;3.40;99.90
13322;DHT22;6730;46.248;6.930;2024-01-15T04:34:23;3.80;99.90
13322;DHT22;6730;46.248;6.930;2024-01-15T04:36:49;3.90;99.90
13322;DHT22;6730;46.248;6.930;2024-01-15T04:39:14;3.80;99.90
13322;DHT22;6730;46.248;6.930;2024-01-15T04:41:40;3.90;99.90
13322;DHT22;6730;46.248;6.930;2024-01-15T04:44:06;3.80;99.90
13322;DHT22;6730;46.248;6.930;2024-01-15T04:46:32;3.80;99.90
13322;DHT22;6730;46.248;6.930;2024-01-15T04:48:57;4.00;99.90
13322;DHT22;6730;46.248;6.930;2024-01-15T04:51:23;4.00;99.90
13322;DHT22;6730;46.248;6.930;2024-01-15T04:53:48;3.80;99.90
13322;DHT22;6730;46.248;6.930;2024-01-15T04:56:14;3.40;99.90
13322;DHT22;6730;46.248;6.930;2024-01-15T04:58:40;3.10;99.90
13322;DHT22;6730;46.248;6.930;2024-01-15T05:01:05;3.10;99.90
13322;DHT22;6730;46.248;6.930;2024-01-15T05:03:33;3.10;99.90
13322;DHT22;6730;46.248;6.930;2024-01-15T05:05:58;3.20;99.90
13322;DHT22;6730;46.248;6.930;2024-01-15T05:08:24;3.00;99.90
13322;DHT22;6730;46.248;6.930;2024-01-15T05:10:50;2.70;99.90
13322;DHT22;6730;46.248;6.930;2024-01-15T05:13:15;2.80;99.90
13322;DHT22;6730;46.248;6.930;2024-01-15T05:15:41;2.60;99.90
13322;DHT22;6730;46.248;6.930;2024-01-15T05:18:06;2.60;99.90
13322;DHT22;6730;46.248;6.930;2024-01-15T05:20:32;2.40;99.90
13322;DHT22;6730;46.248;6.930;2024-01-15T05:22:58;2.30;99.90
13322;DHT22;6730;46.248;6.930;2024-01-15T05:25:23;2.20;99.90
13322;DHT22;6730;46.248;6.930;2024-01-15T05:27:49;2.20;99.90
13322;DHT22;6730;46.248;6.930;2024-01-15T05:30:15;2.40;99.90
13322;DHT22;6730;46.248;6.930;2024-01-15T05:32:42;2.40;99.90
13322;DHT22;6730;46.248;6.930;2024-01-15T05:35:07;2.50;99.90
13322;DHT22;6730;46.248;6.930;2024-01-15T05:37:33;2.90;99.90
13322;DHT22;6730;46.248;6.930;2024-01-15T05:39:59;2.90;99.90
13322;DHT22;6730;46.248;6.930;2024-01-15T05:42:24;2.50;99.90
13322;DHT22;6730;46.248;6.930;2024-01-15T05:44:50;2.30;99.90
13322;DHT22;6730;46.248;6.930;2024-01-15T05:47:15;2.20;99.90
13322;DHT22;6730;46.248;6.930;2024-01-15T05:49:41;2.20;99.90
13322;DHT22;6730;46.248;6.930;2024-01-15T05:52:07;2.30;99.90
13322;DHT22;6730;46.248;6.930;2024-01-15T05:54:32;2.50;99.90
13322;DHT22;6730;46.248;6.930;2024-01-15T05:56:58;2.60;99.90
13322;DHT22;6730;46.248;6.930;2024-01-15T05:59:24;2.80;99.90
13322;DHT22;6730;46.248;6.930;2024-01-15T06:01:50;2.90;99.90
13322;DHT22;6730;46.248;6.930;2024-01-15T06:04:16;2.90;99.90
13322;DHT22;6730;46.248;6.930;2024-01-15T06:06:42;2.60;99.90
13322;DHT22;6730;46.248;6.930;2024-01-15T06:09:07;2.50;99.90
13322;DHT22;6730;46.248;6.930;2024-01-15T06:11:34;2.30;99.90
13322;DHT22;6730;46.248;6.930;2024-01-15T06:14:00;2.30;99.90
13322;DHT22;6730;46.248;6.930;2024-01-15T06:16:29;2.30;99.90
13322;DHT22;6730;46.248;6.930;2024-01-15T06:18:54;2.20;99.90
13322;DHT22;6730;46.248;6.930;2024-01-15T06:21:20;2.20;99.90
13322;DHT22;6730;46.248;6.930;2024-01-15T06:23:46;2.10;99.90
13322;DHT22;6730;46.248;6.930;2024-01-15T06:26:12;2.30;99.90
13322;DHT22;6730;46.248;6.930;2024-01-15T06:28:37;2.40;99.90
13322;DHT22;6730;46.248;6.930;2024-01-15T06:31:03;2.40;99.90
13322;DHT22;6730;46.248;6.930;2024-01-15T06:33:29;2.40;99.90
13322;DHT22;6730;46.248;6.930;2024-01-15T06:35:55;2.60;99.90
13322;DHT22;6730;46.248;6.930;2024-01-15T06:38:21;2.90;99.90
13322;DHT22;6730;46.248;6.930;2024-01-15T06:40:53;2.90;99.90
13322;DHT22;6730;46.248;6.930;2024-01-15T06:43:19;3.10;99.90
13322;DHT22;6730;46.248;6.930;2024-01-15T06:45:45;3.00;99.90
13322;DHT22;6730;46.248;6.930;2024-01-15T06:48:10;2.90;99.90
13322;DHT22;6730;46.248;6.930;2024-01-15T06:50:40;3.00;99.90
13322;DHT22;6730;46.248;6.930;2024-01-15T06:53:05;2.80;99.90
13322;DHT22;6730;46.248;6.930;2024-01-15T06:55:31;2.90;99.90
13322;DHT22;6730;46.248;6.930;2024-01-15T06:57:57;3.00;99.90
13322;DHT22;6730;46.248;6.930;2024-01-15T07:00:22;3.20;99.90
13322;DHT22;6730;46.248;6.930;2024-01-15T07:02:48;3.20;99.90
13322;DHT22;6730;46.248;6.930;2024-01-15T07:05:14;3.10;99.90
13322;DHT22;6730;46.248;6.930;2024-01-15T07:07:39;3.00;99.90
13322;DHT22;6730;46.248;6.930;2024-01-15T07:10:05;3.00;99.90
13322;DHT22;6730;46.248;6.930;2024-01-15T07:12:31;3.30;99.90
13322;DHT22;6730;46.248;6.930;2024-01-15T07:14:57;3.20;99.90
13322;DHT22;6730;46.248;6.930;2024-01-15T07:17:22;3.30;99.90
13322;DHT22;6730;46.248;6.930;2024-01-15T07:19:48;3.10;99.90
13322;DHT22;6730;46.248;6.930;2024-01-15T07:22:14;2.90;99.90
13322;DHT22;6730;46.248;6.930;2024-01-15T07:24:43;3.10;99.90
13322;DHT22;6730;46.248;6.930;2024-01-15T07:27:09;3.10;99.90
13322;DHT22;6730;46.248;6.930;2024-01-15T07:29:35;3.30;99.90
13322;DHT22;6730;46.248;6.930;2024-01-15T07:32:04;3.30;99.90
13322;DHT22;6730;46.248;6.930;2024-01-15T07:34:30;3.10;99.90
13322;DHT22;6730;46.248;6.930;2024-01-15T07:36:57;2.90;99.90
13322;DHT22;6730;46.248;6.930;2024-01-15T07:39:23;2.80;99.90
13322;DHT22;6730;46.248;6.930;2024-01-15T07:41:53;3.00;99.90
13322;DHT22;6730;46.248;6.930;2024-01-15T07:44:19;3.00;99.90
13322;DHT22;6730;46.248;6.930;2024-01-15T07:46:45;3.00;99.90
13322;DHT22;6730;46.248;6.930;2024-01-15T07:49:11;3.00;99.90
13322;DHT22;6730;46.248;6.930;2024-01-15T07:51:37;3.00;99.90
13322;DHT22;6730;46.248;6.930;2024-01-15T07:54:06;3.10;99.90
13322;DHT22;6730;46.248;6.930;2024-01-15T07:56:32;3.50;99.90
13322;DHT22;6730;46.248;6.930;2024-01-15T07:58:58;3.70;99.90
13322;DHT22;6730;46.248;6.930;2024-01-15T08:01:24;3.60;99.90
13322;DHT22;6730;46.248;6.930;2024-01-15T08:03:50;3.60;99.90
13322;DHT22;6730;46.248;6.930;2024-01-15T08:06:15;3.60;99.90
13322;DHT22;6730;46.248;6.930;2024-01-15T08:08:41;3.60;99.90
13322;DHT22;6730;46.248;6.930;2024-01-15T08:11:07;3.60;99.90
13322;DHT22;6730;46.248;6.930;2024-01-15T08:13:33;3.60;99.90
13322;DHT22;6730;46.248;6.930;2024-01-15T08:15:58;3.80;99.90
13322;DHT22;6730;46.248;6.930;2024-01-15T08:18:24;3.50;99.90
13322;DHT22;6730;46.248;6.930;2024-01-15T08:20:51;3.20;99.90
13322;DHT22;6730;46.248;6.930;2024-01-15T08:23:17;3.40;99.90
13322;DHT22;6730;46.248;6.930;2024-01-15T08:25:43;3.50;99.90
13322;DHT22;6730;46.248;6.930;2024-01-15T08:28:08;3.70;99.90
13322;DHT22;6730;46.248;6.930;2024-01-15T08:30:34;3.50;99.90
13322;DHT22;6730;46.248;6.930;2024-01-15T08:33:00;3.30;99.90
13322;DHT22;6730;46.248;6.930;2024-01-15T08:35:26;3.10;99.90
13322;DHT22;6730;46.248;6.930;2024-01-15T08:37:52;3.10;99.90
13322;DHT22;6730;46.248;6.930;2024-01-15T08:40:18;3.20;99.90
13322;DHT22;6730;46.248;6.930;2024-01-15T08:42:44;3.30;99.90
13322;DHT22;6730;46.248;6.930;2024-01-15T08:45:13;3.30;99.90
13322;DHT22;6730;46.248;6.930;2024-01-15T08:47:39;3.30;99.90
13322;DHT22;6730;46.248;6.930;2024-01-15T08:50:05;3.30;99.90
13322;DHT22;6730;46.248;6.930;2024-01-15T08:52:31;3.30;99.90
13322;DHT22;6730;46.248;6.930;2024-01-15T08:54:57;3.30;99.90
13322;DHT22;6730;46.248;6.930;2024-01-15T08:57:22;3.40;99.90
13322;DHT22;6730;46.248;6.930;2024-01-15T08:59:48;3.60;99.90
13322;DHT22;6730;46.248;6.930;2024-01-15T09:02:14;3.70;99.90
13322;DHT22;6730;46.248;6.930;2024-01-15T09:04:41;3.50;99.90
13322;DHT22;6730;46.248;6.930;2024-01-15T09:07:07;3.30;99.90
13322;DHT22;6730;46.248;6.930;2024-01-15T09:09:33;2.90;99.90
13322;DHT22;6730;46.248;6.930;2024-01-15T09:11:59;3.00;99.90
13322;DHT22;6730;46.248;6.930;2024-01-15T09:14:25;3.50;99.90
13322;DHT22;6730;46.248;6.930;2024-01-15T09:16:52;3.50;99.90
13322;DHT22;6730;46.248;6.930;2024-01-15T09:19:18;3.30;99.90
13322;DHT22;6730;46.248;6.930;2024-01-15T09:21:44;3.60;99.90
13322;DHT22;6730;46.248;6.930;2024-01-15T09:24:09;3.90;99.90
13322;DHT22;6730;46.248;6.930;2024-01-15T09:26:35;4.10;99.90
13322;DHT22;6730;46.248;6.930;2024-01-15T09:29:01;4.10;99.90
13322;DHT22;6730;46.248;6.930;2024-01-15T09:31:28;3.80;99.90
13322;DHT22;6730;46.248;6.930;2024-01-15T09:33:54;3.70;99.90
13322;DHT22;6730;46.248;6.930;2024-01-15T09:36:23;3.80;99.90
13322;DHT22;6730;46.248;6.930;2024-01-15T09:38:49;3.30;99.90
13322;DHT22;6730;46.248;6.930;2024-01-15T09:41:15;3.10;99.90
13322;DHT22;6730;46.248;6.930;2024-01-15T09:43:41;3.10;99.90
13322;DHT22;6730;46.248;6.930;2024-01-15T09:46:08;2.80;99.90
13322;DHT22;6730;46.248;6.930;2024-01-15T09:48:33;2.80;99.90
13322;DHT22;6730;46.248;6.930;2024-01-15T09:51:01;2.80;99.90
13322;DHT22;6730;46.248;6.930;2024-01-15T09:53:27;3.00;99.90
13322;DHT22;6730;46.248;6.930;2024-01-15T09:55:53;3.40;99.90
13322;DHT22;6730;46.248;6.930;2024-01-15T09:58:19;3.80;99.90
13322;DHT22;6730;46.248;6.930;2024-01-15T10:00:47;3.90;99.90
13322;DHT22;6730;46.248;6.930;2024-01-15T10:03:13;3.70;99.90
13322;DHT22;6730;46.248;6.930;2024-01-15T10:05:39;3.50;99.90
13322;DHT22;6730;46.248;6.930;2024-01-15T10:08:05;3.50;99.90
13322;DHT22;6730;46.248;6.930;2024-01-15T10:10:31;3.60;99.90
13322;DHT22;6730;46.248;6.930;2024-01-15T10:12:58;3.80;99.90
13322;DHT22;6730;46.248;6.930;2024-01-15T10:15:28;4.00;99.90
13322;DHT22;6730;46.248;6.930;2024-01-15T10:17:54;4.00;99.90
13322;DHT22;6730;46.248;6.930;2024-01-15T10:20:20;3.90;99.90
13322;DHT22;6730;46.248;6.930;2024-01-15T10:22:47;3.40;99.90
13322;DHT22;6730;46.248;6.930;2024-01-15T10:25:14;3.10;99.90
13322;DHT22;6730;46.248;6.930;2024-01-15T10:27:43;2.80;99.90
13322;DHT22;6730;46.248;6.930;2024-01-15T10:30:10;2.60;99.90
13322;DHT22;6730;46.248;6.930;2024-01-15T10:32:36;2.70;99.90
13322;DHT22;6730;46.248;6.930;2024-01-15T10:35:02;2.70;99.90
13322;DHT22;6730;46.248;6.930;2024-01-15T10:37:33;2.70;99.90
13322;DHT22;6730;46.248;6.930;2024-01-15T10:40:00;2.70;99.90
13322;DHT22;6730;46.248;6.930;2024-01-15T10:42:26;2.90;99.90
13322;DHT22;6730;46.248;6.930;2024-01-15T10:44:52;3.10;99.90
13322;DHT22;6730;46.248;6.930;2024-01-15T10:47:18;3.30;99.90
13322;DHT22;6730;46.248;6.930;2024-01-15T10:49:45;3.20;99.90
13322;DHT22;6730;46.248;6.930;2024-01-15T10:52:11;3.10;99.90
13322;DHT22;6730;46.248;6.930;2024-01-15T10:54:37;3.10;99.90
13322;DHT22;6730;46.248;6.930;2024-01-15T10:57:04;2.90;99.90
13322;DHT22;6730;46.248;6.930;2024-01-15T10:59:31;2.90;99.90
13322;DHT22;6730;46.248;6.930;2024-01-15T11:01:59;2.90;99.90
13322;DHT22;6730;46.248;6.930;2024-01-15T11:04:24;3.20;99.90
13322;DHT22;6730;46.248;6.930;2024-01-15T11:06:54;3.70;99.90
13322;DHT22;6730;46.248;6.930;2024-01-15T11:09:21;3.60;99.90
13322;DHT22;6730;46.248;6.930;2024-01-15T11:11:47;3.50;99.90
13322;DHT22;6730;46.248;6.930;2024-01-15T11:14:40;3.50;99.90
13322;DHT22;6730;46.248;6.930;2024-01-15T11:17:09;3.60;99.90
13322;DHT22;6730;46.248;6.930;2024-01-15T11:19:45;3.90;99.90
13322;DHT22;6730;46.248;6.930;2024-01-15T11:24:55;3.80;99.90
13322;DHT22;6730;46.248;6.930;2024-01-15T11:27:45;3.90;99.90
13322;DHT22;6730;46.248;6.930;2024-01-15T11:30:18;3.40;99.90
13322;DHT22;6730;46.248;6.930;2024-01-15T11:32:45;3.10;99.90
13322;DHT22;6730;46.248;6.930;2024-01-15T11:35:13;2.90;99.90
13322;DHT22;6730;46.248;6.930;2024-01-15T11:40:21;2.90;99.90
13322;DHT22;6730;46.248;6.930;2024-01-15T11:42:48;3.30;99.90
13322;DHT22;6730;46.248;6.930;2024-01-15T11:45:18;3.70;99.90
13322;DHT22;6730;46.248;6.930;2024-01-15T11:48:09;3.40;99.90
13322;DHT22;6730;46.248;6.930;2024-01-15T11:50:40;3.30;99.90
13322;DHT22;6730;46.248;6.930;2024-01-15T11:56:22;3.40;99.90
13322;DHT22;6730;46.248;6.930;2024-01-15T11:58:48;3.60;99.90
13322;DHT22;6730;46.248;6.930;2024-01-15T12:01:16;3.50;99.90
13322;DHT22;6730;46.248;6.930;2024-01-15T12:03:42;3.20;99.90
13322;DHT22;6730;46.248;6.930;2024-01-15T12:06:09;3.00;99.90
13322;DHT22;6730;46.248;6.930;2024-01-15T12:08:35;2.90;99.90
13322;DHT22;6730;46.248;6.930;2024-01-15T12:11:10;2.80;99.90
13322;DHT22;6730;46.248;6.930;2024-01-15T12:13:38;2.90;99.90
13322;DHT22;6730;46.248;6.930;2024-01-15T12:16:04;3.40;99.90
13322;DHT22;6730;46.248;6.930;2024-01-15T12:18:30;3.50;99.90
13322;DHT22;6730;46.248;6.930;2024-01-15T12:20:56;3.50;99.90
13322;DHT22;6730;46.248;6.930;2024-01-15T12:23:21;3.20;99.90
13322;DHT22;6730;46.248;6.930;2024-01-15T12:25:47;3.10;99.90
13322;DHT22;6730;46.248;6.930;2024-01-15T12:28:15;3.30;99.90
13322;DHT22;6730;46.248;6.930;2024-01-15T12:30:40;3.40;99.90
13322;DHT22;6730;46.248;6.930;2024-01-15T12:33:07;3.60;99.90
13322;DHT22;6730;46.248;6.930;2024-01-15T12:35:33;3.60;99.90
13322;DHT22;6730;46.248;6.930;2024-01-15T12:38:02;3.70;99.90
13322;DHT22;6730;46.248;6.930;2024-01-15T12:40:28;3.80;99.90
13322;DHT22;6730;46.248;6.930;2024-01-15T12:42:54;4.00;99.90
13322;DHT22;6730;46.248;6.930;2024-01-15T12:45:20;4.40;99.90
13322;DHT22;6730;46.248;6.930;2024-01-15T12:47:46;4.60;99.90
13322;DHT22;6730;46.248;6.930;2024-01-15T12:50:12;4.60;99.90
13322;DHT22;6730;46.248;6.930;2024-01-15T12:52:40;4.80;99.90
13322;DHT22;6730;46.248;6.930;2024-01-15T12:55:07;4.80;99.90
13322;DHT22;6730;46.248;6.930;2024-01-15T12:57:34;4.80;99.90
13322;DHT22;6730;46.248;6.930;2024-01-15T13:00:01;4.60;99.90
13322;DHT22;6730;46.248;6.930;2024-01-15T13:02:27;4.30;99.90
13322;DHT22;6730;46.248;6.930;2024-01-15T13:04:53;3.90;99.90
13322;DHT22;6730;46.248;6.930;2024-01-15T13:07:19;3.60;99.90
13322;DHT22;6730;46.248;6.930;2024-01-15T13:09:45;3.20;99.90
13322;DHT22;6730;46.248;6.930;2024-01-15T13:12:11;3.10;99.90
13322;DHT22;6730;46.248;6.930;2024-01-15T13:14:37;3.20;99.90
13322;DHT22;6730;46.248;6.930;2024-01-15T13:17:03;3.10;99.90
13322;DHT22;6730;46.248;6.930;2024-01-15T13:19:29;3.00;99.90
13322;DHT22;6730;46.248;6.930;2024-01-15T13:21:54;2.80;99.90
13322;DHT22;6730;46.248;6.930;2024-01-15T13:24:22;2.80;99.90
13322;DHT22;6730;46.248;6.930;2024-01-15T13:26:48;3.10;99.90
13322;DHT22;6730;46.248;6.930;2024-01-15T13:29:15;3.10;99.90
13322;DHT22;6730;46.248;6.930;2024-01-15T13:31:40;3.10;99.90
13322;DHT22;6730;46.248;6.930;2024-01-15T13:34:06;3.00;99.90
13322;DHT22;6730;46.248;6.930;2024-01-15T13:36:32;2.90;99.90
13322;DHT22;6730;46.248;6.930;2024-01-15T13:38:58;2.80;99.90
13322;DHT22;6730;46.248;6.930;2024-01-15T13:41:24;2.80;99.90
13322;DHT22;6730;46.248;6.930;2024-01-15T13:43:55;2.80;99.90
13322;DHT22;6730;46.248;6.930;2024-01-15T13:46:23;3.20;99.90
13322;DHT22;6730;46.248;6.930;2024-01-15T13:48:49;3.50;99.90
13322;DHT22;6730;46.248;6.930;2024-01-15T13:51:15;3.40;99.90
13322;DHT22;6730;46.248;6.930;2024-01-15T13:53:41;3.30;99.90
13322;DHT22;6730;46.248;6.930;2024-01-15T13:56:07;3.30;99.90
13322;DHT22;6730;46.248;6.930;2024-01-15T13:58:35;3.50;99.90
13322;DHT22;6730;46.248;6.930;2024-01-15T14:01:01;3.50;99.90
13322;DHT22;6730;46.248;6.930;2024-01-15T14:03:26;3.60;99.90
13322;DHT22;6730;46.248;6.930;2024-01-15T14:05:52;3.60;99.90
13322;DHT22;6730;46.248;6.930;2024-01-15T14:08:18;3.70;99.90
13322;DHT22;6730;46.248;6.930;2024-01-15T14:10:43;3.70;99.90
13322;DHT22;6730;46.248;6.930;2024-01-15T14:13:09;3.80;99.90
13322;DHT22;6730;46.248;6.930;2024-01-15T14:15:35;3.70;99.90
13322;DHT22;6730;46.248;6.930;2024-01-15T14:18:01;3.70;99.90
13322;DHT22;6730;46.248;6.930;2024-01-15T14:20:27;3.70;99.90
13322;DHT22;6730;46.248;6.930;2024-01-15T14:22:53;3.70;99.90
13322;DHT22;6730;46.248;6.930;2024-01-15T14:25:19;3.70;99.90
13322;DHT22;6730;46.248;6.930;2024-01-15T14:27:45;3.70;99.90
13322;DHT22;6730;46.248;6.930;2024-01-15T14:30:11;3.60;99.90
13322;DHT22;6730;46.248;6.930;2024-01-15T14:32:38;3.70;99.90
13322;DHT22;6730;46.248;6.930;2024-01-15T14:35:05;3.80;99.90
13322;DHT22;6730;46.248;6.930;2024-01-15T14:37:31;3.60;99.90
13322;DHT22;6730;46.248;6.930;2024-01-15T14:39:56;3.70;99.90
13322;DHT22;6730;46.248;6.930;2024-01-15T14:42:22;3.70;99.90
13322;DHT22;6730;46.248;6.930;2024-01-15T14:44:49;3.70;99.90
13322;DHT22;6730;46.248;6.930;2024-01-15T14:47:15;3.70;99.90
13322;DHT22;6730;46.248;6.930;2024-01-15T14:49:40;3.40;99.90
13322;DHT22;6730;46.248;6.930;2024-01-15T14:52:06;3.40;99.90
13322;DHT22;6730;46.248;6.930;2024-01-15T14:54:32;3.50;99.90
13322;DHT22;6730;46.248;6.930;2024-01-15T14:56:58;3.50;99.90
13322;DHT22;6730;46.248;6.930;2024-01-15T14:59:23;3.60;99.90
13322;DHT22;6730;46.248;6.930;2024-01-15T15:01:49;3.80;99.90
13322;DHT22;6730;46.248;6.930;2024-01-15T15:04:15;4.00;99.90
13322;DHT22;6730;46.248;6.930;2024-01-15T15:06:40;4.20;99.90
13322;DHT22;6730;46.248;6.930;2024-01-15T15:09:06;4.40;99.90
13322;DHT22;6730;46.248;6.930;2024-01-15T15:11:35;4.30;99.90
13322;DHT22;6730;46.248;6.930;2024-01-15T15:14:01;4.40;99.90
13322;DHT22;6730;46.248;6.930;2024-01-15T15:16:27;4.20;99.90
13322;DHT22;6730;46.248;6.930;2024-01-15T15:18:53;4.00;99.90
13322;DHT22;6730;46.248;6.930;2024-01-15T15:21:20;3.80;99.90
13322;DHT22;6730;46.248;6.930;2024-01-15T15:23:46;3.80;99.90
13322;DHT22;6730;46.248;6.930;2024-01-15T15:26:13;3.70;99.90
13322;DHT22;6730;46.248;6.930;2024-01-15T15:28:38;3.80;99.90
13322;DHT22;6730;46.248;6.930;2024-01-15T15:31:06;3.90;99.90
13322;DHT22;6730;46.248;6.930;2024-01-15T15:33:37;4.30;99.90
13322;DHT22;6730;46.248;6.930;2024-01-15T15:36:03;4.70;99.90
13322;DHT22;6730;46.248;6.930;2024-01-15T15:38:33;4.90;99.90
13322;DHT22;6730;46.248;6.930;2024-01-15T15:41:00;5.10;99.90
13322;DHT22;6730;46.248;6.930;2024-01-15T15:43:26;4.70;99.90
13322;DHT22;6730;46.248;6.930;2024-01-15T15:45:52;4.30;99.90
13322;DHT22;6730;46.248;6.930;2024-01-15T15:48:18;4.20;99.90
13322;DHT22;6730;46.248;6.930;2024-01-15T15:50:43;4.10;99.90
13322;DHT22;6730;46.248;6.930;2024-01-15T15:53:09;3.80;99.90
13322;DHT22;6730;46.248;6.930;2024-01-15T15:55:35;3.60;99.90
13322;DHT22;6730;46.248;6.930;2024-01-15T15:58:04;3.60;99.90
13322;DHT22;6730;46.248;6.930;2024-01-15T16:00:33;3.40;99.90
13322;DHT22;6730;46.248;6.930;2024-01-15T16:02:58;3.60;99.90
13322;DHT22;6730;46.248;6.930;2024-01-15T16:05:24;3.90;99.90
13322;DHT22;6730;46.248;6.930;2024-01-15T16:07:50;3.90;99.90